Muscat International Airport
OOMS : now visible

Airfield :











YOU CAN JOIN US ON...

 
LOGIN :

Register | Disclaimer

   EN    FR    IT 

 









Legend :    VFR   Marginal VFR   IFR   Intensive IFR   Very Intensive IFR
Visi :
Ceiling :
>= 8 km
>= 3000ft
5 to 8 km
1000 to 3000 ft
1500m to 5 km
500 to 1000 ft
800 to 1500m
200 to 500 ft
< 800m
< 200 ft
Symbols :   Thunderstorms  Fog  Heavy snow  Heavy precipitations  Wind > 20 kt







- Airport Elevation : 48 ft
- IATA code : MCT


OOMS - Muscat International

CURRENT METAR :
  • 160850Z 36009KT 330V040 9000 FEW025 25/17 Q1017 NOSIG

EXPIRED METARs :
  • 160750Z 36012KT 9000 FEW025 SCT090 25/19 Q1018 NOSIG
  • 160650Z 34010KT 9000 FEW025 SCT090 25/18 Q1019 NOSIG

TAF TAF OOMS
Valid from the 16 at 06:00 until the 17 at 12:00 UTC


160500Z 1606/1712 07012KT 8000 NSC
PROB30
TEMPO 1606/1615 BKN040
BECMG 1620/1622 24008KT
BECMG 1706/1708 36010KT
OOMM FIR / Asia



MET'MAP, your aeronautical weather chart ! - Copyright ORBIFLY December 2007 - Disclaimer

ORBIFLY MET'MAP TEAM :

Programming & Development : Alexandra Zaïnal
Concept & Development : Baudouin d'Aumeries
Co-Development & Prog : Marc-Olivier Méhu
Technical & hardware support : Manuel Goepfert

Contact : metmap@orbifly.com




SOURCES & CREDITS :

   NOAA       Earth
Advisory